createdAt,value
2019-01-18T00:01:35.124Z,0.41
2019-01-18T00:04:04.551Z,0.40
2019-01-18T00:06:33.918Z,0.42
2019-01-18T00:09:02.888Z,0.39
2019-01-18T00:11:32.009Z,0.19
2019-01-18T00:14:00.786Z,0.31
2019-01-18T00:16:30.823Z,0.28
2019-01-18T00:18:59.701Z,0.10
2019-01-18T00:21:29.077Z,-0.04
2019-01-18T00:23:58.244Z,0.09
2019-01-18T00:26:27.358Z,0.11
2019-01-18T00:28:56.993Z,-0.18
2019-01-18T00:31:26.183Z,-0.01
2019-01-18T00:33:59.152Z,0.08
2019-01-18T00:36:28.088Z,-0.04
2019-01-18T00:38:57.052Z,-0.04
2019-01-18T00:41:25.918Z,-0.27
2019-01-18T00:43:54.811Z,-0.16
2019-01-18T00:46:23.965Z,-0.03
2019-01-18T00:48:52.796Z,0.03
2019-01-18T00:51:21.642Z,-0.08
2019-01-18T00:53:50.714Z,-0.09
2019-01-18T00:56:19.571Z,-0.18
2019-01-18T00:58:48.369Z,-0.08
2019-01-18T01:01:17.363Z,-0.49
2019-01-18T01:03:46.254Z,-0.20
2019-01-18T01:06:15.457Z,-0.36
2019-01-18T01:08:44.343Z,-0.41
2019-01-18T01:11:13.232Z,-0.71
2019-01-18T01:13:42.327Z,-0.71
2019-01-18T01:16:11.644Z,-0.45
2019-01-18T01:18:40.524Z,-0.48
2019-01-18T01:21:09.324Z,-0.44
2019-01-18T01:23:47.681Z,-0.39
2019-01-18T01:26:16.811Z,-0.52
2019-01-18T01:28:45.645Z,-0.43
2019-01-18T01:31:14.457Z,-0.62
2019-01-18T01:33:43.358Z,-0.73
2019-01-18T01:36:12.228Z,-0.58
2019-01-18T01:38:41.153Z,-0.52
2019-01-18T01:41:10.040Z,-0.63
2019-01-18T01:43:38.857Z,-0.66
2019-01-18T01:46:08.075Z,-0.68
2019-01-18T01:48:37.456Z,-0.69
2019-01-18T01:51:06.313Z,-0.63
2019-01-18T01:53:35.119Z,-0.61
2019-01-18T01:56:04.014Z,-0.73
2019-01-18T01:58:32.964Z,-0.65
2019-01-18T02:01:01.936Z,-0.75
2019-01-18T02:03:31.064Z,-0.65
2019-01-18T02:06:45.345Z,-0.82
2019-01-18T02:09:14.623Z,-0.76
2019-01-18T02:11:43.609Z,-0.71
2019-01-18T02:14:12.707Z,-0.76
2019-01-18T02:16:41.695Z,-0.82
2019-01-18T02:19:10.668Z,-1.01
2019-01-18T02:21:39.874Z,-0.94
2019-01-18T02:24:09.521Z,-0.94
2019-01-18T02:26:38.405Z,-0.96
2019-01-18T02:29:07.226Z,-0.89
2019-01-18T02:31:36.167Z,-0.91
2019-01-18T02:37:33.112Z,-1.11
2019-01-18T02:40:02.312Z,-1.01
2019-01-18T02:42:31.132Z,-0.93
2019-01-18T02:44:59.948Z,-0.98
2019-01-18T02:47:29.377Z,-1.08
2019-01-18T02:50:00.869Z,-1.17
2019-01-18T02:52:30.048Z,-1.17
2019-01-18T02:54:59.101Z,-1.26
2019-01-18T02:57:28.571Z,-1.28
2019-01-18T03:00:04.806Z,-1.25
2019-01-18T03:02:28.552Z,-1.35
2019-01-18T03:04:57.485Z,-1.45
2019-01-18T03:07:26.733Z,-1.47
2019-01-18T03:09:55.634Z,-1.54
2019-01-18T03:12:24.563Z,-1.56
2019-01-18T03:14:53.374Z,-1.65
2019-01-18T03:17:22.246Z,-1.69
2019-01-18T03:20:43.923Z,-1.65
2019-01-18T03:23:12.805Z,-1.71
2019-01-18T03:25:41.935Z,-1.89
2019-01-18T03:28:11.984Z,-1.88
2019-01-18T03:30:40.835Z,-1.83
2019-01-18T03:33:09.754Z,-1.79
2019-01-18T03:35:38.602Z,-1.79
2019-01-18T03:38:07.494Z,-1.76
2019-01-18T03:40:36.311Z,-1.94
2019-01-18T03:43:05.573Z,-1.92
2019-01-18T03:45:34.439Z,-1.88
2019-01-18T03:48:03.394Z,-1.68
2019-01-18T03:50:32.553Z,-1.87
2019-01-18T03:53:01.429Z,-1.93
2019-01-18T03:55:30.385Z,-2.00
2019-01-18T03:57:59.764Z,-1.95
2019-01-18T04:00:30.090Z,-1.97
2019-01-18T04:02:59.102Z,-2.11
2019-01-18T04:05:28.140Z,-2.11
2019-01-18T04:07:57.074Z,-2.09
2019-01-18T04:10:26.271Z,-2.07
2019-01-18T04:12:55.595Z,-2.13
2019-01-18T04:15:25.865Z,-2.24
2019-01-18T04:17:54.810Z,-2.11
2019-01-18T04:20:25.312Z,-2.28
2019-01-18T04:22:54.260Z,-2.38
2019-01-18T04:25:27.126Z,-2.40
2019-01-18T04:27:56.047Z,-2.43
2019-01-18T04:30:33.599Z,-2.47
2019-01-18T04:32:59.725Z,-2.37
2019-01-18T04:35:28.642Z,-2.50
2019-01-18T04:37:57.760Z,-2.44
2019-01-18T04:40:45.057Z,-2.35
2019-01-18T04:43:13.885Z,-2.24
2019-01-18T04:45:43.500Z,-2.51
2019-01-18T04:48:12.287Z,-2.55
2019-01-18T04:50:41.454Z,-2.40
2019-01-18T04:53:10.744Z,-2.35
2019-01-18T04:55:39.566Z,-2.46
2019-01-18T04:58:08.690Z,-2.55
2019-01-18T05:00:41.096Z,-2.86
2019-01-18T05:03:08.915Z,-2.63
2019-01-18T05:05:37.748Z,-2.77
2019-01-18T05:08:06.545Z,-2.61
2019-01-18T05:10:35.740Z,-2.65
2019-01-18T05:13:04.772Z,-2.58
2019-01-18T05:15:35.699Z,-2.56
2019-01-18T05:18:04.517Z,-2.64
2019-01-18T05:20:33.498Z,-2.73
2019-01-18T05:23:02.420Z,-2.59
2019-01-18T05:25:31.233Z,-2.60
2019-01-18T05:28:00.555Z,-2.55
2019-01-18T05:30:30.440Z,-2.65
2019-01-18T05:32:59.311Z,-2.66
2019-01-18T05:35:28.381Z,-2.71
2019-01-18T05:38:10.125Z,-2.67
2019-01-18T05:40:38.950Z,-2.64
2019-01-18T05:43:07.770Z,-2.64
2019-01-18T05:45:36.929Z,-2.64
2019-01-18T05:48:05.979Z,-2.66
2019-01-18T05:50:34.867Z,-2.78
2019-01-18T05:53:06.485Z,-2.73
2019-01-18T05:55:35.371Z,-2.73
2019-01-18T05:58:04.532Z,-2.80
2019-01-18T06:00:55.017Z,-2.78
2019-01-18T06:03:18.877Z,-2.89
2019-01-18T06:05:47.972Z,-2.91
2019-01-18T06:08:16.926Z,-2.94
2019-01-18T06:10:46.172Z,-2.85
2019-01-18T06:13:15.085Z,-2.88
2019-01-18T06:15:44.593Z,-2.86
2019-01-18T06:18:14.608Z,-2.97
2019-01-18T06:20:47.378Z,-3.02
2019-01-18T06:23:17.370Z,-3.18
2019-01-18T06:25:46.457Z,-3.17
2019-01-18T06:28:15.294Z,-3.08
2019-01-18T06:30:45.299Z,-3.15
2019-01-18T06:33:15.011Z,-3.08
2019-01-18T06:35:43.887Z,-3.16
2019-01-18T06:38:14.754Z,-3.22
2019-01-18T06:40:45.067Z,-3.32
2019-01-18T06:43:13.919Z,-3.26
2019-01-18T06:45:44.061Z,-3.29
2019-01-18T06:48:15.730Z,-3.33
2019-01-18T06:50:44.538Z,-3.43
2019-01-18T06:53:13.618Z,-3.52
2019-01-18T06:55:42.692Z,-3.43
2019-01-18T06:58:11.733Z,-3.55
2019-01-18T07:00:40.873Z,-3.45
2019-01-18T07:03:09.821Z,-3.41
2019-01-18T07:05:38.867Z,-3.37
2019-01-18T07:08:07.843Z,-3.35
2019-01-18T07:10:36.757Z,-3.37
2019-01-18T07:13:05.639Z,-3.49
2019-01-18T07:15:34.440Z,-3.57
2019-01-18T07:18:03.435Z,-3.53
2019-01-18T07:20:32.316Z,-3.55
2019-01-18T07:23:01.491Z,-3.56
2019-01-18T07:25:31.551Z,-3.61
2019-01-18T07:28:00.642Z,-3.65
2019-01-18T07:30:38.356Z,-3.63
2019-01-18T07:33:09.842Z,-3.60
2019-01-18T07:35:39.086Z,-3.55
2019-01-18T07:38:08.043Z,-3.48
2019-01-18T07:40:36.868Z,-3.35
2019-01-18T07:43:05.769Z,-3.21
2019-01-18T07:45:35.039Z,-3.24
2019-01-18T07:48:04.071Z,-3.11
2019-01-18T07:50:32.935Z,-2.87
2019-01-18T07:53:02.184Z,-2.94
2019-01-18T07:55:31.048Z,-3.04
2019-01-18T07:58:00.016Z,-2.80
2019-01-18T08:00:30.037Z,-2.88
2019-01-18T08:02:59.155Z,-2.85
2019-01-18T08:05:32.282Z,-2.85
2019-01-18T08:08:03.110Z,-2.77
2019-01-18T08:10:32.086Z,-2.71
2019-01-18T08:13:01.014Z,-2.52
2019-01-18T08:15:30.448Z,-2.47
2019-01-18T08:17:59.458Z,-2.44
2019-01-18T08:20:30.092Z,-2.42
2019-01-18T08:22:59.233Z,-2.37
2019-01-18T08:25:28.148Z,-2.30
2019-01-18T08:27:57.428Z,-2.24
2019-01-18T08:30:28.220Z,-2.20
2019-01-18T08:32:57.474Z,-2.14
2019-01-18T08:35:27.208Z,-2.16
2019-01-18T08:37:56.288Z,-2.14
2019-01-18T08:40:30.342Z,-2.11
2019-01-18T08:42:59.816Z,-2.13
2019-01-18T08:46:00.987Z,-2.07
2019-01-18T08:48:29.779Z,-2.01
2019-01-18T08:50:59.022Z,-1.97
2019-01-18T08:53:27.846Z,-1.94
2019-01-18T08:55:56.761Z,-1.88
2019-01-18T08:58:25.652Z,-1.84
2019-01-18T09:00:54.552Z,-1.83
2019-01-18T09:03:23.435Z,-1.79
2019-01-18T09:05:52.287Z,-1.71
2019-01-18T09:08:21.149Z,-1.63
2019-01-18T09:10:50.490Z,-1.58
2019-01-18T09:13:19.596Z,-1.55
2019-01-18T09:15:48.572Z,-1.47
2019-01-18T09:18:17.475Z,-1.36
2019-01-18T09:20:46.296Z,-1.36
2019-01-18T09:23:15.465Z,-1.38
2019-01-18T09:25:44.327Z,-1.35
2019-01-18T09:28:13.242Z,-1.22
2019-01-18T09:30:42.173Z,-1.16
2019-01-18T09:33:11.130Z,-1.01
2019-01-18T09:35:40.737Z,-1.05
2019-01-18T09:38:17.711Z,-1.04
2019-01-18T09:40:42.899Z,-0.83
2019-01-18T09:43:12.244Z,-0.70
2019-01-18T09:45:41.131Z,-0.75
2019-01-18T09:48:11.247Z,-0.66
2019-01-18T09:50:40.510Z,-0.67
2019-01-18T09:53:11.070Z,-0.48
2019-01-18T09:55:40.042Z,-0.69
2019-01-18T09:58:09.265Z,-0.67
2019-01-18T10:00:39.637Z,-0.61
2019-01-18T10:03:09.014Z,-0.52
2019-01-18T10:05:38.129Z,-0.47
2019-01-18T10:08:09.878Z,-0.47
2019-01-18T10:10:39.004Z,-0.53
2019-01-18T10:13:08.054Z,-0.39
2019-01-18T10:15:39.792Z,-0.25
2019-01-18T10:18:08.745Z,-0.23
2019-01-18T10:20:37.566Z,-0.15
2019-01-18T10:23:06.453Z,-0.06
2019-01-18T10:25:35.376Z,0.10
2019-01-18T10:28:04.322Z,0.09
2019-01-18T10:30:33.206Z,0.23
2019-01-18T10:33:02.061Z,0.30
2019-01-18T10:35:32.929Z,0.40
2019-01-18T10:38:02.096Z,0.46
2019-01-18T10:40:30.902Z,0.56
2019-01-18T10:42:59.995Z,0.48
2019-01-18T10:45:31.584Z,0.38
2019-01-18T10:48:00.442Z,0.50
2019-01-18T10:50:33.716Z,0.49
2019-01-18T10:53:02.759Z,0.54
2019-01-18T10:55:31.644Z,0.51
2019-01-18T10:58:00.529Z,0.55
2019-01-18T11:00:32.359Z,0.51
2019-01-18T11:03:01.185Z,0.49
2019-01-18T11:05:30.432Z,0.46
2019-01-18T11:07:59.391Z,0.44
2019-01-18T11:10:28.280Z,0.42
2019-01-18T11:12:57.555Z,0.49
2019-01-18T11:15:28.589Z,0.53
2019-01-18T11:17:58.098Z,0.56
2019-01-18T11:20:36.702Z,0.55
2019-01-18T11:23:05.546Z,0.70
2019-01-18T11:25:34.756Z,0.67
2019-01-18T11:28:03.910Z,0.71
2019-01-18T11:30:33.645Z,0.90
2019-01-18T11:33:02.449Z,0.99
2019-01-18T11:35:32.329Z,1.10
2019-01-18T11:38:01.304Z,1.12
2019-01-18T11:40:30.455Z,1.19
2019-01-18T11:42:59.502Z,1.30
2019-01-18T11:45:28.417Z,1.28
2019-01-18T11:47:57.651Z,1.31
2019-01-18T11:50:26.733Z,1.42
2019-01-18T11:52:55.760Z,1.50
2019-01-18T11:55:24.954Z,1.53
2019-01-18T11:57:53.894Z,1.59
2019-01-18T12:00:25.096Z,1.62
2019-01-18T12:02:53.980Z,1.64
2019-01-18T12:05:23.034Z,1.77
2019-01-18T12:07:52.050Z,1.69
2019-01-18T12:10:23.222Z,1.72
2019-01-18T12:12:52.204Z,1.92
2019-01-18T12:15:21.210Z,1.99
2019-01-18T12:17:50.115Z,2.08
2019-01-18T12:20:24.477Z,2.08
2019-01-18T12:22:53.546Z,2.07
2019-01-18T12:25:23.131Z,1.97
2019-01-18T12:27:51.910Z,1.89
2019-01-18T12:30:23.825Z,1.84
2019-01-18T12:32:52.659Z,1.79
2019-01-18T12:35:21.635Z,1.78
2019-01-18T12:37:50.536Z,1.84
2019-01-18T12:40:19.439Z,1.73
2019-01-18T12:42:48.280Z,1.78
2019-01-18T12:45:19.207Z,1.84
2019-01-18T12:47:48.140Z,1.82
2019-01-18T12:50:23.243Z,1.78
2019-01-18T12:52:52.305Z,1.79
2019-01-18T12:55:21.153Z,1.71
2019-01-18T12:57:50.173Z,1.77
2019-01-18T13:00:21.281Z,1.79
2019-01-18T13:02:50.955Z,1.82
2019-01-18T13:05:23.124Z,1.85
2019-01-18T13:07:52.088Z,1.88
2019-01-18T13:10:20.951Z,1.89
2019-01-18T13:12:49.869Z,1.90
2019-01-18T13:15:39.431Z,1.93
2019-01-18T13:18:08.373Z,1.89
2019-01-18T13:20:37.504Z,1.88
2019-01-18T13:23:06.624Z,1.80
2019-01-18T13:25:35.660Z,1.93
2019-01-18T13:28:04.818Z,1.93
2019-01-18T13:30:35.204Z,2.04
2019-01-18T13:33:04.398Z,2.14
2019-01-18T13:35:33.393Z,2.25
2019-01-18T13:38:02.399Z,2.31
2019-01-18T13:40:31.405Z,2.23
2019-01-18T13:43:00.450Z,2.21
2019-01-18T13:45:29.364Z,1.94
2019-01-18T13:47:58.680Z,1.87
2019-01-18T13:50:27.540Z,1.96
2019-01-18T13:52:56.515Z,1.89
2019-01-18T13:55:26.581Z,1.97
2019-01-18T13:57:55.577Z,1.86
2019-01-18T14:00:24.514Z,1.89
2019-01-18T14:02:53.471Z,1.90
2019-01-18T14:05:22.313Z,1.95
2019-01-18T14:07:53.347Z,1.95
2019-01-18T14:10:25.277Z,2.02
2019-01-18T14:12:54.406Z,1.88
2019-01-18T14:15:23.721Z,1.92
2019-01-18T14:17:52.604Z,1.98
2019-01-18T14:20:21.998Z,2.01
2019-01-18T14:22:51.639Z,1.90
2019-01-18T14:25:20.716Z,1.86
2019-01-18T14:27:49.642Z,1.88
2019-01-18T14:30:21.171Z,1.87
2019-01-18T14:32:55.447Z,1.87
2019-01-18T14:35:20.638Z,1.67
2019-01-18T14:37:49.845Z,1.67
2019-01-18T14:40:18.998Z,1.84
2019-01-18T14:42:47.908Z,1.70
2019-01-18T14:45:19.863Z,1.63
2019-01-18T14:47:48.739Z,1.75
2019-01-18T14:50:18.838Z,1.75
2019-01-18T14:52:47.845Z,1.68
2019-01-18T14:55:17.032Z,1.75
2019-01-18T14:57:45.979Z,1.75
2019-01-18T15:00:34.207Z,1.64
2019-01-18T15:03:04.618Z,1.75
2019-01-18T15:05:33.654Z,1.54
2019-01-18T15:08:03.031Z,1.56
2019-01-18T15:10:31.800Z,1.46
2019-01-18T15:13:03.389Z,1.68
2019-01-18T15:15:32.681Z,1.69
2019-01-18T15:18:01.565Z,1.75
2019-01-18T15:20:31.445Z,1.66
2019-01-18T15:23:00.737Z,1.57
2019-01-18T15:25:29.677Z,1.53
2019-01-18T15:27:58.646Z,1.62
2019-01-18T15:30:29.108Z,1.50
2019-01-18T15:32:57.931Z,1.44
2019-01-18T15:35:29.101Z,1.42
2019-01-18T15:37:58.332Z,1.54
2019-01-18T15:40:28.848Z,1.41
2019-01-18T15:43:06.869Z,1.51
2019-01-18T15:45:35.683Z,1.47
2019-01-18T15:48:04.671Z,1.57
2019-01-18T15:50:36.026Z,1.40
2019-01-18T15:53:05.462Z,1.28
2019-01-18T15:55:34.526Z,1.29
2019-01-18T15:58:03.557Z,1.39
2019-01-18T16:00:37.575Z,1.39
2019-01-18T16:03:07.138Z,1.49
2019-01-18T16:05:36.305Z,1.46
2019-01-18T16:08:06.193Z,1.53
2019-01-18T16:10:35.324Z,1.54
2019-01-18T16:13:04.811Z,1.38
2019-01-18T16:15:52.974Z,1.44
2019-01-18T16:18:22.169Z,1.36
2019-01-18T16:20:51.044Z,1.37
2019-01-18T16:23:20.025Z,1.57
2019-01-18T16:25:48.966Z,1.58
2019-01-18T16:28:17.935Z,1.48
2019-01-18T16:30:46.910Z,1.39
2019-01-18T16:33:23.044Z,1.44
2019-01-18T16:35:46.328Z,1.50
2019-01-18T16:38:15.132Z,1.57
2019-01-18T16:40:43.926Z,1.61
2019-01-18T16:43:19.873Z,1.53
2019-01-18T16:45:48.834Z,1.54
2019-01-18T16:48:17.744Z,1.56
2019-01-18T16:50:46.580Z,1.52
2019-01-18T16:53:15.866Z,1.55
2019-01-18T16:55:44.724Z,1.45
2019-01-18T16:58:13.759Z,1.49
2019-01-18T17:00:43.516Z,1.38
2019-01-18T17:03:12.514Z,1.52
2019-01-18T17:05:41.589Z,1.43
2019-01-18T17:08:10.977Z,1.46
2019-01-18T17:10:40.161Z,1.40
2019-01-18T17:13:09.003Z,1.46
2019-01-18T17:15:38.024Z,1.44
2019-01-18T17:18:07.202Z,1.33
2019-01-18T17:20:38.780Z,1.31
2019-01-18T18:50:04.587Z,1.18
2019-01-18T18:53:06.249Z,1.15
2019-01-18T18:56:12.879Z,1.15
2019-01-18T18:59:25.442Z,1.11
2019-01-18T19:02:25.608Z,1.18
2019-01-18T19:05:25.482Z,1.05
2019-01-18T19:08:07.543Z,1.05
2019-01-18T19:10:57.742Z,1.08
2019-01-18T19:14:12.626Z,1.13
2019-01-18T19:17:11.735Z,1.16
2019-01-18T19:20:03.546Z,1.18
2019-01-18T19:22:47.413Z,1.19
2019-01-18T19:25:59.807Z,1.21
2019-01-18T19:29:01.880Z,1.19
2019-01-18T19:32:16.243Z,1.17
2019-01-18T19:35:05.500Z,1.27
2019-01-18T19:38:18.980Z,1.17
2019-01-18T19:41:11.870Z,1.22
2019-01-18T19:44:18.268Z,1.19
2019-01-18T19:47:15.488Z,1.21
2019-01-18T19:50:32.978Z,1.22
2019-01-18T19:53:20.355Z,1.16
2019-01-18T19:56:47.153Z,1.13
2019-01-18T20:00:11.708Z,1.16
2019-01-18T20:02:51.819Z,1.13
2019-01-18T20:06:00.898Z,1.17
2019-01-18T20:09:11.797Z,1.12
2019-01-18T20:11:59.994Z,0.99
2019-01-18T20:15:06.441Z,1.11
2019-01-18T20:18:18.346Z,1.03
2019-01-18T20:21:20.362Z,0.99
2019-01-18T20:24:22.167Z,0.93
2019-01-18T20:27:44.576Z,0.93
2019-01-18T20:30:43.896Z,0.86
2019-01-18T20:33:56.479Z,0.83
2019-01-18T20:36:32.542Z,0.80
2019-01-18T20:39:35.856Z,0.76
2019-01-18T20:42:33.892Z,0.78
2019-01-18T20:46:02.242Z,0.80
2019-01-18T20:49:03.559Z,0.75
2019-01-18T20:51:51.639Z,0.78
2019-01-18T20:55:03.053Z,0.78
2019-01-18T20:58:25.189Z,0.71
2019-01-18T21:01:35.045Z,0.67
2019-01-18T21:04:38.564Z,0.62
2019-01-18T21:07:19.955Z,0.58
2019-01-18T21:10:25.580Z,0.37
2019-01-18T21:13:36.555Z,0.48
2019-01-18T21:16:57.817Z,0.37
2019-01-18T21:20:02.825Z,0.44
2019-01-18T21:23:21.726Z,0.44
2019-01-18T21:26:07.778Z,0.38
2019-01-18T21:29:26.311Z,0.38
2019-01-18T21:32:39.545Z,0.40
2019-01-18T21:35:27.782Z,0.33
2019-01-18T21:38:12.541Z,0.40
2019-01-18T21:40:53.112Z,0.34
2019-01-18T21:43:38.668Z,0.19
2019-01-18T21:46:23.931Z,0.23
2019-01-18T21:49:19.509Z,0.12
2019-01-18T21:52:38.795Z,0.03
2019-01-18T21:55:23.280Z,0.12
2019-01-18T21:58:18.861Z,-0.02
2019-01-18T22:01:28.970Z,0.02
2019-01-18T22:04:40.530Z,0.13
2019-01-18T22:07:33.931Z,0.11
2019-01-18T22:10:18.269Z,0.06
2019-01-18T22:13:28.791Z,-0.10
2019-01-18T22:16:42.342Z,0.01
2019-01-18T22:19:51.860Z,0.01
2019-01-18T22:22:29.340Z,-0.25
2019-01-18T22:25:40.051Z,-0.36
2019-01-18T22:28:48.750Z,-0.21
2019-01-18T22:31:50.534Z,-0.27
2019-01-18T22:34:51.444Z,-0.19
2019-01-18T22:38:04.861Z,-0.09
2019-01-18T22:41:02.855Z,-0.07
2019-01-18T22:43:59.832Z,-0.11
2019-01-18T22:47:11.995Z,-0.11
2019-01-18T22:49:52.974Z,-0.05
2019-01-18T22:52:50.633Z,-0.14
2019-01-18T22:55:35.771Z,-0.06
2019-01-18T22:58:51.122Z,-0.14
2019-01-18T23:01:43.457Z,-0.16
2019-01-18T23:04:55.559Z,-0.27
2019-01-18T23:07:49.562Z,-0.15
2019-01-18T23:11:06.405Z,-0.14
2019-01-18T23:14:09.551Z,-0.15
2019-01-18T23:17:12.875Z,-0.20
2019-01-18T23:19:50.379Z,-0.39
2019-01-18T23:22:53.736Z,-0.17
2019-01-18T23:25:57.006Z,-0.16
2019-01-18T23:28:53.832Z,-0.15
2019-01-18T23:31:40.111Z,-0.23
2019-01-18T23:34:25.331Z,-0.25
2019-01-18T23:37:18.943Z,-0.21
2019-01-18T23:40:30.884Z,-0.21
2019-01-18T23:43:53.425Z,-0.40
2019-01-18T23:46:59.523Z,-0.65
2019-01-18T23:50:03.565Z,-0.89
2019-01-18T23:53:07.146Z,-0.60
2019-01-18T23:55:58.229Z,-0.66
2019-01-18T23:58:45.600Z,-1.00
